Terminal Aerodrome Forecast
Issued by NWS Memphis, TN

Home | Current Version | Previous Version | Text Only | Print | Product List | Glossary On
Versions: 1 2 3 4 5 6 7 8 9 10 11 12 13 14 15 16
000
FTUS44 KMEG 270313 AAA
TAFMKL
TAF AMD
KMKL 270313Z 2703/2724 17005KT 6SM -TSRA BKN050CB OVC100
     FM270700 17003KT 5SM BR BKN015
     FM271600 19010KT P6SM VCTS SCT030CB BKN050=

USA.gov is the U.S. government's official web portal to all federal, state and local government web resources and services.